Time;durP1;ratioP1;P1;durP2;ratioP2;P2;SDS_P1;SDS_P2;PMS_P1;PMS_P2;Temp;Humidity;BMP_temperature;BMP_pressure;BME280_temperature;BME280_humidity;BME280_pressure;Samples;Min_cycle;Max_cycle;Signal;HPM_P1;HPM_P2
2023/04/12 00:00:16;;;;;;;15.05;4.07;;;14.40;95.20;;;;;;7389996;19;20006;-75
2023/04/12 00:02:46;;;;;;;19.52;3.80;;;14.40;95.30;;;;;;7389691;19;20007;-75
2023/04/12 00:05:15;;;;;;;27.75;3.92;;;14.40;95.20;;;;;;7391438;19;20260;-75
2023/04/12 00:07:45;;;;;;;19.05;3.85;;;14.40;95.30;;;;;;7387561;19;20003;-75
2023/04/12 00:10:14;;;;;;;18.92;3.85;;;14.40;95.40;;;;;;7410606;19;20035;-75
2023/04/12 00:12:45;;;;;;;23.17;3.63;;;14.50;95.40;;;;;;7384938;19;20075;-75
2023/04/12 00:15:14;;;;;;;21.98;3.78;;;14.50;95.40;;;;;;7385318;19;20275;-75
2023/04/12 00:17:43;;;;;;;32.75;4.00;;;14.40;95.20;;;;;;7384396;19;20031;-75
2023/04/12 00:20:15;;;;;;;23.27;4.53;;;14.40;95.30;;;;;;7384489;19;20010;-75
2023/04/12 00:22:43;;;;;;;;;;;14.20;95.50;;;;;;7385687;19;20006;-75
2023/04/12 00:25:13;;;;;;;17.80;3.65;;;14.30;95.60;;;;;;7406028;19;19910;-74
2023/04/12 00:27:41;;;;;;;19.95;4.55;;;14.30;95.30;;;;;;7384110;19;20003;-74
2023/04/12 00:30:13;;;;;;;29.17;3.67;;;14.30;95.50;;;;;;7384510;19;20006;-74
2023/04/12 00:32:43;;;;;;;19.17;3.80;;;14.30;95.70;;;;;;7384618;19;20056;-74
2023/04/12 00:35:12;;;;;;;20.05;4.05;;;14.20;95.50;;;;;;7384751;19;20389;-73
2023/04/12 00:37:40;;;;;;;13.88;3.72;;;14.30;95.60;;;;;;7385014;19;20011;-73
2023/04/12 00:40:11;;;;;;;22.60;4.18;;;14.40;95.60;;;;;;7405892;19;20006;-73
2023/04/12 00:42:40;;;;;;;20.63;3.80;;;14.40;95.70;;;;;;7383817;19;20025;-73
2023/04/12 00:45:14;;;;;;;22.95;4.07;;;14.30;95.40;;;;;;7383658;19;20265;-74
2023/04/12 00:47:44;;;;;;;17.65;4.10;;;14.20;95.60;;;;;;7384298;19;20003;-73
2023/04/12 00:50:13;;;;;;;26.85;3.92;;;14.10;95.50;;;;;;7384512;19;20007;-74
2023/04/12 00:52:42;;;;;;;20.70;4.28;;;14.20;95.60;;;;;;7382535;19;20386;-73
2023/04/12 00:55:11;;;;;;;22.48;4.30;;;14.30;95.60;;;;;;7402822;19;20365;-73
2023/04/12 00:57:41;;;;;;;18.55;3.85;;;14.20;95.60;;;;;;7380399;19;20062;-73
2023/04/12 01:00:15;;;;;;;30.63;4.15;;;14.20;95.60;;;;;;7380196;19;20387;-74
2023/04/12 01:02:49;;;;;;;18.80;3.47;;;14.10;95.50;;;;;;7381597;19;20003;-73
2023/04/12 01:05:21;;;;;;;24.35;4.65;;;14.10;95.80;;;;;;7380588;19;20024;-73
2023/04/12 01:07:57;;;;;;;17.38;3.85;;;14.20;95.90;;;;;;7381105;19;20007;-74
2023/04/12 01:10:35;;;;;;;20.95;4.18;;;14.30;95.90;;;;;;7405097;19;20003;-74
2023/04/12 01:13:18;;;;;;;25.00;4.00;;;14.30;95.90;;;;;;7381393;19;20006;-74
2023/04/12 01:15:55;;;;;;;24.55;4.30;;;14.30;95.90;;;;;;7380721;19;20256;-74
2023/04/12 01:18:27;;;;;;;24.98;4.07;;;14.20;96.10;;;;;;7379684;19;20020;-74
2023/04/12 01:21:02;;;;;;;23.25;3.83;;;14.40;95.80;;;;;;7381324;19;20006;-74
2023/04/12 01:23:53;;;;;;;20.30;3.40;;;14.40;95.80;;;;;;7381626;19;20010;-74
2023/04/12 01:26:41;;;;;;;20.13;3.75;;;14.20;95.80;;;;;;7379518;19;20039;-74
2023/04/12 01:29:15;;;;;;;17.55;3.78;;;14.20;95.80;;;;;;7380310;19;20003;-74
2023/04/12 01:31:52;;;;;;;27.17;4.13;;;14.00;96.10;;;;;;7378912;19;20006;-74
2023/04/12 01:34:23;;;;;;;28.55;4.18;;;14.10;96.30;;;;;;7402081;19;20090;-74
2023/04/12 01:36:53;;;;;;;19.43;4.33;;;13.90;96.30;;;;;;7380132;19;20066;-74
2023/04/12 01:39:22;;;;;;;22.25;3.55;;;14.00;96.50;;;;;;7379345;19;20275;-74
2023/04/12 01:41:51;;;;;;;19.55;4.28;;;14.10;96.60;;;;;;7380246;19;20010;-74
2023/04/12 01:44:23;;;;;;;20.92;4.38;;;14.10;96.50;;;;;;7379980;19;20244;-74
2023/04/12 01:46:53;;;;;;;23.30;3.95;;;14.20;96.50;;;;;;7379264;19;20158;-74
2023/04/12 01:49:23;;;;;;;29.10;4.05;;;14.30;96.30;;;;;;7402114;19;20018;-74
2023/04/12 01:51:58;;;;;;;19.55;3.55;;;14.10;96.40;;;;;;7381903;19;20032;-74
2023/04/12 01:54:30;;;;;;;24.95;4.18;;;14.10;96.40;;;;;;7382148;19;20373;-74
2023/04/12 01:57:03;;;;;;;17.73;3.75;;;13.80;96.70;;;;;;7382863;19;20002;-74
2023/04/12 01:59:40;;;;;;;13.70;3.80;;;13.90;96.80;;;;;;7382668;19;20006;-74
2023/04/12 02:02:09;;;;;;;21.65;4.32;;;14.10;96.80;;;;;;7381423;19;20038;-75
2023/04/12 02:04:39;;;;;;;14.77;4.30;;;14.10;97.10;;;;;;7382232;19;20350;-73
2023/04/12 02:07:08;;;;;;;17.50;3.70;;;14.10;96.70;;;;;;7403052;19;20011;-75
2023/04/12 02:09:39;;;;;;;21.35;4.25;;;14.20;96.90;;;;;;7380265;19;20034;-74
2023/04/12 02:12:09;;;;;;;16.17;4.28;;;14.00;96.90;;;;;;7381972;19;20007;-74
2023/04/12 02:14:41;;;;;;;18.77;3.95;;;13.90;97.20;;;;;;7381636;19;20007;-75
2023/04/12 02:17:11;;;;;;;;;;;13.80;97.60;;;;;;7383939;19;20011;-74
2023/04/12 02:19:40;;;;;;;23.57;3.67;;;14.00;97.80;;;;;;7382074;19;19918;-75
2023/04/12 02:22:09;;;;;;;15.30;3.85;;;14.00;97.50;;;;;;7401826;19;20339;-74
2023/04/12 02:24:38;;;;;;;14.82;3.53;;;13.70;98.00;;;;;;7378429;19;20026;-75
2023/04/12 02:27:07;;;;;;;13.80;3.65;;;13.60;98.10;;;;;;7379011;19;20027;-74
2023/04/12 02:29:35;;;;;;;16.27;3.15;;;13.60;98.30;;;;;;7378630;19;20235;-74
2023/04/12 02:32:07;;;;;;;15.45;3.75;;;13.80;98.10;;;;;;7378396;19;20010;-74
2023/04/12 02:34:37;;;;;;;20.42;3.47;;;13.60;98.40;;;;;;7378441;19;20384;-76
2023/04/12 02:37:06;;;;;;;18.95;3.70;;;13.80;98.20;;;;;;7398338;19;20023;-74
2023/04/12 02:39:40;;;;;;;17.17;3.47;;;13.70;98.30;;;;;;7377711;19;20003;-75
2023/04/12 02:42:13;;;;;;;20.75;3.88;;;13.80;98.30;;;;;;7378865;19;20040;-74
2023/04/12 02:44:46;;;;;;;19.08;3.53;;;13.70;98.40;;;;;;7376258;19;20071;-75
2023/04/12 02:47:17;;;;;;;14.00;3.40;;;13.80;98.30;;;;;;7378300;19;20389;-75
2023/04/12 02:49:46;;;;;;;8.07;2.97;;;13.90;98.20;;;;;;7377133;19;20010;-75
2023/04/12 02:52:15;;;;;;;14.98;3.50;;;13.90;98.20;;;;;;7401101;19;20015;-74
2023/04/12 02:54:43;;;;;;;27.48;3.45;;;13.90;97.90;;;;;;7378406;19;19999;-73
2023/04/12 02:57:14;;;;;;;12.82;3.55;;;13.60;98.40;;;;;;7377999;19;20023;-75
2023/04/12 02:59:44;;;;;;;18.02;3.80;;;13.60;98.80;;;;;;7377118;19;20317;-76
2023/04/12 03:02:12;;;;;;;16.48;3.00;;;13.60;99.10;;;;;;7376727;19;20020;-75
2023/04/12 03:04:45;;;;;;;18.00;3.88;;;13.60;99.10;;;;;;7376527;19;20114;-76
2023/04/12 03:07:14;;;;;;;16.65;3.15;;;13.90;98.90;;;;;;7400555;19;20039;-73
2023/04/12 03:09:44;;;;;;;12.73;3.20;;;13.70;98.90;;;;;;7378296;19;20007;-74
2023/04/12 03:12:12;;;;;;;24.25;3.80;;;14.00;98.70;;;;;;7379040;19;20010;-75
2023/04/12 03:14:41;;;;;;;12.15;3.60;;;13.80;98.70;;;;;;7378825;19;20292;-73
2023/04/12 03:17:10;;;;;;;12.32;3.25;;;13.80;99.00;;;;;;7377177;19;20512;-74
2023/04/12 03:19:39;;;;;;;10.63;2.88;;;13.70;98.90;;;;;;7376053;19;20087;-75
2023/04/12 03:22:10;;;;;;;9.65;3.15;;;13.80;98.90;;;;;;7399067;19;20018;-74
2023/04/12 03:24:41;;;;;;;7.63;2.38;;;13.90;98.90;;;;;;7376688;19;20007;-75
2023/04/12 03:27:10;;;;;;;14.32;3.15;;;13.90;98.90;;;;;;7377558;19;20077;-75
2023/04/12 03:29:39;;;;;;;9.20;2.65;;;14.00;98.90;;;;;;7379323;19;20074;-75
2023/04/12 03:32:07;;;;;;;12.52;3.03;;;14.10;98.90;;;;;;7378797;19;20010;-75
2023/04/12 03:34:36;;;;;;;12.65;3.30;;;14.20;98.80;;;;;;7377132;19;20011;-74
2023/04/12 03:37:05;;;;;;;10.00;3.05;;;13.90;99.30;;;;;;7398892;19;20354;-75
2023/04/12 03:39:37;;;;;;;9.00;2.70;;;13.70;99.90;;;;;;7375445;19;20300;-76
2023/04/12 03:42:05;;;;;;;4.35;1.13;;;13.80;99.90;;;;;;7376866;19;20058;-75
2023/04/12 03:44:35;;;;;;;5.28;1.55;;;13.60;99.50;;;;;;7376783;19;20006;-76
2023/04/12 03:47:03;;;;;;;3.53;0.73;;;13.10;99.60;;;;;;7377867;19;20007;-75
2023/04/12 03:49:32;;;;;;;0.70;0.60;;;13.10;99.90;;;;;;7376482;19;20023;-75
2023/04/12 03:52:01;;;;;;;0.77;0.68;;;13.20;99.80;;;;;;7397568;19;20006;-74
2023/04/12 03:54:30;;;;;;;1.00;0.73;;;13.10;99.70;;;;;;7377690;19;20036;-74
2023/04/12 03:57:01;;;;;;;5.57;0.70;;;13.20;99.50;;;;;;7382571;19;20031;-75
2023/04/12 03:59:31;;;;;;;;;;;13.20;99.50;;;;;;7383728;19;20007;-74
2023/04/12 04:02:01;;;;;;;4.97;1.10;;;13.20;99.30;;;;;;7384268;19;19911;-75
2023/04/12 04:04:33;;;;;;;1.02;0.47;;;13.40;99.50;;;;;;7380717;19;20651;-75
2023/04/12 04:07:02;;;;;;;3.60;0.52;;;13.30;98.80;;;;;;7406354;19;20054;-75
2023/04/12 04:09:31;;;;;;;1.25;0.60;;;13.30;99.10;;;;;;7385695;19;20035;-75
2023/04/12 04:12:05;;;;;;;6.30;0.70;;;13.20;99.20;;;;;;7385539;19;20010;-75
2023/04/12 04:14:36;;;;;;;6.00;0.90;;;13.30;99.30;;;;;;7385148;19;20007;-75
2023/04/12 04:17:05;;;;;;;2.55;0.90;;;13.20;99.10;;;;;;7384548;19;20011;-74
2023/04/12 04:19:34;;;;;;;2.17;0.68;;;13.30;99.20;;;;;;7383952;19;20108;-74
2023/04/12 04:22:03;;;;;;;3.40;0.80;;;13.30;99.30;;;;;;7405031;19;20019;-74
2023/04/12 04:24:33;;;;;;;5.72;0.88;;;13.50;99.40;;;;;;7385407;19;20020;-75
2023/04/12 04:27:05;;;;;;;1.30;0.70;;;13.50;99.30;;;;;;7384364;19;20013;-74
2023/04/12 04:29:35;;;;;;;1.80;0.90;;;13.50;99.20;;;;;;7383812;19;20007;-75
2023/04/12 04:32:06;;;;;;;2.75;0.75;;;13.50;99.30;;;;;;7383621;19;20054;-74
2023/04/12 04:34:35;;;;;;;2.47;0.70;;;13.60;99.30;;;;;;7381387;19;20101;-75
2023/04/12 04:37:05;;;;;;;1.70;0.82;;;13.70;99.30;;;;;;7405816;19;20015;-75
2023/04/12 04:39:34;;;;;;;4.25;1.00;;;13.70;99.30;;;;;;7383705;19;19999;-75
2023/04/12 04:42:05;;;;;;;2.17;0.88;;;13.80;99.50;;;;;;7381465;19;20281;-75
2023/04/12 04:44:36;;;;;;;4.20;0.98;;;13.90;99.70;;;;;;7381258;19;20002;-75
2023/04/12 04:47:05;;;;;;;2.47;0.90;;;13.90;99.70;;;;;;7382147;19;20230;-75
2023/04/12 04:49:37;;;;;;;10.00;1.10;;;13.90;99.80;;;;;;7379804;19;20006;-76
2023/04/12 04:52:09;;;;;;;2.78;1.15;;;14.00;99.80;;;;;;7401670;19;19998;-74
2023/04/12 04:54:38;;;;;;;1.63;1.00;;;14.00;99.80;;;;;;7381036;19;20006;-74
2023/04/12 04:57:10;;;;;;;6.22;1.75;;;14.10;99.70;;;;;;7381616;19;20013;-73
2023/04/12 04:59:39;;;;;;;4.57;1.10;;;14.10;99.70;;;;;;7381178;19;20003;-74
2023/04/12 05:02:08;;;;;;;1.80;0.90;;;14.10;99.70;;;;;;7382072;19;20003;-73
2023/04/12 05:04:36;;;;;;;1.80;0.98;;;14.10;99.70;;;;;;7381423;19;20010;-73
2023/04/12 05:07:05;;;;;;;6.88;1.65;;;14.10;99.50;;;;;;7400070;19;20013;-74
2023/04/12 05:09:34;;;;;;;4.18;1.60;;;14.10;99.50;;;;;;7380630;19;20051;-75
2023/04/12 05:12:03;;;;;;;2.35;1.05;;;14.10;99.50;;;;;;7380350;19;20006;-75
2023/04/12 05:14:35;;;;;;;2.45;1.08;;;14.10;99.40;;;;;;7381197;19;20003;-75
2023/04/12 05:17:03;;;;;;;1.38;0.93;;;14.10;99.60;;;;;;7380841;19;20019;-74
2023/04/12 05:19:32;;;;;;;4.13;1.15;;;14.10;99.60;;;;;;7379209;19;20006;-77
2023/04/12 05:22:05;;;;;;;2.15;0.93;;;14.10;99.70;;;;;;7401257;19;20109;-75
2023/04/12 05:24:34;;;;;;;6.22;1.30;;;14.10;99.60;;;;;;7380262;19;20006;-73
2023/04/12 05:27:02;;;;;;;1.00;0.77;;;14.10;99.40;;;;;;7379985;19;20350;-74
2023/04/12 05:29:40;;;;;;;2.30;1.23;;;14.10;99.30;;;;;;7380258;19;20078;-77
2023/04/12 05:32:09;;;;;;;1.75;0.88;;;14.00;99.30;;;;;;7379620;19;20389;-73
2023/04/12 05:34:37;;;;;;;4.95;1.02;;;14.10;99.40;;;;;;7380250;19;20010;-74
2023/04/12 05:37:06;;;;;;;3.63;1.55;;;13.90;99.00;;;;;;7400031;19;20011;-74
2023/04/12 05:39:35;;;;;;;4.60;2.20;;;13.60;98.80;;;;;;7379573;19;20286;-72
2023/04/12 05:42:04;;;;;;;5.97;2.40;;;13.00;97.90;;;;;;7380069;19;20014;-72
2023/04/12 05:44:37;;;;;;;5.18;2.40;;;12.70;98.10;;;;;;7380612;19;20010;-73
2023/04/12 05:47:06;;;;;;;4.28;1.88;;;12.50;98.00;;;;;;7380443;19;20010;-74
2023/04/12 05:49:35;;;;;;;7.10;1.88;;;12.20;98.10;;;;;;7379331;19;20544;-73
2023/04/12 05:52:04;;;;;;;7.82;2.08;;;11.90;98.30;;;;;;7399683;19;20031;-73
2023/04/12 05:54:33;;;;;;;4.88;1.67;;;11.70;98.50;;;;;;7379383;19;20009;-73
2023/04/12 05:57:02;;;;;;;8.23;1.83;;;11.30;98.20;;;;;;7380121;19;20011;-73
2023/04/12 05:59:31;;;;;;;7.78;1.80;;;11.10;98.90;;;;;;7380464;19;20370;-73
2023/04/12 06:02:02;;;;;;;6.03;1.75;;;11.10;99.00;;;;;;7380745;19;20066;-72
2023/04/12 06:04:31;;;;;;;10.05;2.00;;;11.20;99.20;;;;;;7379123;19;20279;-74
2023/04/12 06:07:00;;;;;;;8.73;1.67;;;11.30;99.00;;;;;;7401599;19;20018;-74
2023/04/12 06:09:29;;;;;;;8.93;1.73;;;11.30;99.10;;;;;;7379014;19;20028;-74
2023/04/12 06:11:57;;;;;;;13.20;2.10;;;11.50;99.00;;;;;;7379507;19;20003;-72
2023/04/12 06:14:26;;;;;;;7.47;1.67;;;11.40;98.90;;;;;;7379508;19;20123;-74
2023/04/12 06:16:55;;;;;;;9.57;1.73;;;11.20;98.70;;;;;;7378339;19;20062;-74
2023/04/12 06:19:27;;;;;;;11.30;1.60;;;11.30;98.60;;;;;;7398911;19;20178;-74
2023/04/12 06:21:55;;;;;;;8.93;1.90;;;11.40;98.80;;;;;;7376717;19;20028;-74
2023/04/12 06:24:24;;;;;;;7.10;1.63;;;11.60;98.40;;;;;;7377927;19;20003;-74
2023/04/12 06:26:53;;;;;;;6.72;1.75;;;11.50;98.20;;;;;;7378229;19;20010;-73
2023/04/12 06:29:21;;;;;;;10.77;2.42;;;11.70;98.20;;;;;;7378661;19;20006;-74
2023/04/12 06:31:50;;;;;;;9.60;2.20;;;11.50;98.50;;;;;;7379664;19;20011;-73
2023/04/12 06:34:19;;;;;;;9.20;2.05;;;11.70;98.50;;;;;;7400374;19;20070;-73
2023/04/12 06:36:50;;;;;;;4.07;1.70;;;11.50;98.20;;;;;;7377735;19;20010;-74
2023/04/12 06:39:19;;;;;;;5.45;2.03;;;11.80;98.50;;;;;;7377783;19;20028;-73
2023/04/12 06:41:49;;;;;;;13.00;2.08;;;12.00;98.70;;;;;;7378186;19;20006;-73
2023/04/12 06:44:18;;;;;;;9.35;1.92;;;12.00;98.00;;;;;;7377609;19;20396;-74
2023/04/12 06:46:46;;;;;;;9.32;1.60;;;12.10;98.00;;;;;;7378810;19;20006;-73
2023/04/12 06:49:15;;;;;;;8.23;2.03;;;12.00;97.90;;;;;;7400053;19;20016;-74
2023/04/12 06:51:44;;;;;;;13.63;1.65;;;11.70;97.60;;;;;;7377520;19;20090;-73
2023/04/12 06:54:16;;;;;;;9.48;1.92;;;11.90;98.30;;;;;;7377335;19;20382;-74
2023/04/12 06:56:44;;;;;;;8.50;1.60;;;12.00;97.90;;;;;;7378086;19;20006;-72
2023/04/12 06:59:13;;;;;;;16.63;1.85;;;11.90;97.60;;;;;;7377656;19;20411;-73
2023/04/12 07:01:42;;;;;;;10.10;1.90;;;12.20;97.90;;;;;;7376400;19;20038;-73
2023/04/12 07:04:10;;;;;;;10.77;2.10;;;12.30;98.00;;;;;;7398596;19;20382;-73
2023/04/12 07:06:39;;;;;;;12.32;2.10;;;12.30;97.60;;;;;;7377388;19;20006;-72
2023/04/12 07:09:08;;;;;;;8.95;1.60;;;12.40;97.90;;;;;;7377152;19;20010;-73
2023/04/12 07:11:39;;;;;;;7.35;1.60;;;12.60;97.00;;;;;;7377434;19;20007;-73
2023/04/12 07:14:08;;;;;;;8.13;1.58;;;12.50;97.10;;;;;;7377811;19;20058;-73
2023/04/12 07:16:36;;;;;;;10.00;2.00;;;12.50;96.80;;;;;;7377624;19;20019;-74
2023/04/12 07:19:05;;;;;;;9.15;1.83;;;12.60;97.10;;;;;;7397154;19;20300;-74
2023/04/12 07:21:34;;;;;;;9.25;1.58;;;12.60;97.10;;;;;;7376544;19;20002;-73
2023/04/12 07:24:05;;;;;;;8.77;1.80;;;12.80;97.50;;;;;;7378528;19;20007;-74
2023/04/12 07:26:34;;;;;;;3.80;1.65;;;12.70;96.90;;;;;;7378990;19;20452;-73
2023/04/12 07:29:05;;;;;;;6.75;1.75;;;12.90;97.40;;;;;;7379142;19;20082;-74
2023/04/12 07:31:34;;;;;;;7.82;1.65;;;13.00;97.90;;;;;;7384652;19;20525;-74
2023/04/12 07:34:03;;;;;;;13.90;2.22;;;13.10;97.50;;;;;;7406043;19;20039;-73
2023/04/12 07:36:32;;;;;;;5.95;1.60;;;13.20;96.90;;;;;;7383534;19;20027;-73
2023/04/12 07:39:00;;;;;;;10.95;1.40;;;13.30;97.70;;;;;;7384463;19;20019;-73
2023/04/12 07:41:30;;;;;;;6.85;1.63;;;13.40;97.70;;;;;;7382882;19;20023;-73
2023/04/12 07:43:58;;;;;;;3.70;1.02;;;13.50;97.40;;;;;;7382258;19;20072;-73
2023/04/12 07:46:30;;;;;;;7.25;1.17;;;13.50;96.70;;;;;;7400401;19;20023;-73
2023/04/12 07:48:58;;;;;;;7.20;1.20;;;13.40;96.30;;;;;;7405329;19;20019;-73
2023/04/12 07:51:27;;;;;;;7.20;1.55;;;13.50;96.70;;;;;;7383417;19;20398;-74
2023/04/12 07:53:56;;;;;;;6.43;1.50;;;13.60;96.30;;;;;;7384097;19;20025;-73
2023/04/12 07:56:24;;;;;;;10.93;1.33;;;13.40;96.30;;;;;;7384125;19;20006;-73
2023/04/12 07:58:53;;;;;;;5.40;1.20;;;13.30;95.60;;;;;;7382544;19;20010;-73
2023/04/12 08:01:25;;;;;;;5.38;1.10;;;13.30;95.80;;;;;;7403858;19;20006;-73
2023/04/12 08:03:56;;;;;;;5.88;0.90;;;13.30;96.50;;;;;;7383100;19;20029;-73
2023/04/12 08:06:25;;;;;;;5.78;1.15;;;13.40;96.60;;;;;;7383099;19;20007;-73
2023/04/12 08:08:54;;;;;;;6.80;1.13;;;13.50;97.00;;;;;;7382202;19;20031;-73
2023/04/12 08:11:23;;;;;;;1.70;0.80;;;13.30;94.90;;;;;;7381875;19;20023;-73
2023/04/12 08:13:52;;;;;;;3.10;0.93;;;13.30;95.50;;;;;;7383128;19;20075;-73
2023/04/12 08:16:20;;;;;;;3.97;1.23;;;13.20;95.80;;;;;;7404727;19;20003;-73
2023/04/12 08:18:49;;;;;;;6.47;1.00;;;13.20;95.90;;;;;;7380672;19;20011;-73
2023/04/12 08:21:21;;;;;;;2.65;0.80;;;13.30;95.80;;;;;;7380911;19;20027;-73
2023/04/12 08:23:50;;;;;;;3.40;0.80;;;13.20;94.40;;;;;;7381905;19;20010;-74
2023/04/12 08:26:20;;;;;;;4.18;0.88;;;12.80;94.50;;;;;;7382720;19;20007;-73
2023/04/12 08:28:48;;;;;;;3.15;0.75;;;12.80;95.00;;;;;;7381270;19;20000;-73
2023/04/12 08:31:17;;;;;;;2.22;0.63;;;12.50;94.30;;;;;;7404756;19;20011;-73
2023/04/12 08:33:46;;;;;;;2.15;0.60;;;12.20;94.20;;;;;;7381548;19;20006;-74
2023/04/12 08:36:16;;;;;;;3.63;0.80;;;12.20;94.40;;;;;;7382094;19;20011;-73
2023/04/12 08:38:51;;;;;;;5.57;1.05;;;12.20;94.60;;;;;;7383027;19;20014;-73
2023/04/12 08:41:20;;;;;;;2.95;0.85;;;12.10;95.10;;;;;;7382199;19;20060;-73
2023/04/12 08:43:49;;;;;;;1.15;0.60;;;12.20;95.10;;;;;;7383459;19;20018;-73
2023/04/12 08:46:18;;;;;;;1.33;0.73;;;12.20;94.90;;;;;;7401828;19;20378;-73
2023/04/12 08:48:48;;;;;;;2.70;1.02;;;11.90;94.50;;;;;;7381187;19;20014;-73
2023/04/12 08:51:18;;;;;;;5.43;0.90;;;12.00;94.80;;;;;;7381036;19;20032;-73
2023/04/12 08:53:51;;;;;;;5.85;1.00;;;12.20;95.10;;;;;;7382353;19;20010;-73
2023/04/12 08:56:21;;;;;;;1.38;0.70;;;12.00;94.70;;;;;;7382214;19;20020;-73
2023/04/12 08:58:50;;;;;;;3.25;0.90;;;12.10;94.60;;;;;;7382065;19;20031;-73
2023/04/12 09:01:21;;;;;;;6.22;1.23;;;12.10;94.80;;;;;;7402316;19;20019;-73
2023/04/12 09:03:50;;;;;;;4.55;0.75;;;12.40;94.80;;;;;;7381037;19;20381;-74
2023/04/12 09:06:19;;;;;;;2.45;0.65;;;12.60;94.80;;;;;;7381107;19;20015;-73
2023/04/12 09:08:59;;;;;;;1.58;0.70;;;12.70;94.00;;;;;;7381374;19;20055;-73
2023/04/12 09:11:29;;;;;;;1.15;0.68;;;12.70;94.00;;;;;;7380382;19;20003;-73
2023/04/12 09:13:59;;;;;;;3.03;0.90;;;12.60;93.20;;;;;;7381717;19;20006;-73
2023/04/12 09:16:38;;;;;;;7.45;0.73;;;12.70;92.90;;;;;;7384353;19;20015;-74
2023/04/12 09:19:07;;;;;;;3.67;0.60;;;12.70;93.20;;;;;;7400603;19;20015;-73
2023/04/12 09:21:37;;;;;;;3.92;0.82;;;12.60;92.90;;;;;;7379497;19;20130;-73
2023/04/12 09:24:12;;;;;;;3.03;0.75;;;12.60;92.80;;;;;;7379506;19;20014;-73
2023/04/12 09:26:41;;;;;;;3.30;0.80;;;12.80;92.90;;;;;;7379902;19;20401;-73
2023/04/12 09:29:24;;;;;;;3.22;0.77;;;12.70;92.40;;;;;;7380271;19;19998;-73
2023/04/12 09:32:03;;;;;;;2.80;0.75;;;13.00;92.80;;;;;;7380225;19;20014;-73
2023/04/12 09:34:32;;;;;;;0.88;0.50;;;12.70;92.30;;;;;;7379171;19;20011;-73
2023/04/12 09:37:01;;;;;;;4.07;0.90;;;12.80;92.30;;;;;;7401116;19;20019;-73
2023/04/12 09:39:38;;;;;;;1.77;0.60;;;12.90;92.30;;;;;;7379274;19;20003;-73
2023/04/12 09:42:08;;;;;;;6.97;0.63;;;13.10;91.40;;;;;;7378267;19;20011;-73
2023/04/12 09:44:37;;;;;;;2.22;0.50;;;13.10;91.50;;;;;;7380418;19;20020;-73
2023/04/12 09:47:06;;;;;;;2.95;0.65;;;12.80;91.00;;;;;;7379474;19;20085;-73
2023/04/12 09:49:43;;;;;;;7.60;1.10;;;13.00;91.40;;;;;;7377573;19;20010;-73
2023/04/12 09:52:13;;;;;;;2.25;0.85;;;13.20;91.50;;;;;;7399169;19;20011;-73
2023/04/12 09:54:46;;;;;;;2.22;0.80;;;13.10;90.90;;;;;;7380441;19;20006;-73
2023/04/12 09:57:17;;;;;;;2.60;0.70;;;13.30;91.70;;;;;;7383078;19;20007;-73
2023/04/12 09:59:50;;;;;;;3.85;0.80;;;13.40;91.40;;;;;;7382348;19;20086;-73
2023/04/12 10:02:21;;;;;;;7.53;0.85;;;13.60;91.10;;;;;;7379978;19;20263;-73
2023/04/12 10:04:50;;;;;;;3.28;0.60;;;13.60;91.10;;;;;;7379862;19;20015;-74
2023/04/12 10:07:20;;;;;;;7.07;0.77;;;13.30;90.30;;;;;;7401284;19;20015;-74
2023/04/12 10:09:51;;;;;;;5.72;1.00;;;13.60;91.10;;;;;;7378235;19;20006;-73
2023/04/12 10:12:21;;;;;;;4.78;0.90;;;13.20;90.70;;;;;;7378677;19;20003;-74
2023/04/12 10:14:50;;;;;;;3.70;0.85;;;13.30;90.70;;;;;;7377913;19;20369;-74
2023/04/12 10:17:21;;;;;;;3.22;0.85;;;13.30;90.40;;;;;;7377647;19;20002;-74
2023/04/12 10:19:51;;;;;;;6.38;0.88;;;13.30;90.00;;;;;;7377640;19;20031;-74
2023/04/12 10:22:20;;;;;;;4.65;1.40;;;13.30;87.90;;;;;;7398951;19;20030;-74
2023/04/12 10:24:51;;;;;;;2.47;0.82;;;13.40;88.50;;;;;;7377321;19;20019;-74
2023/04/12 10:27:26;;;;;;;8.70;1.60;;;13.50;87.20;;;;;;7377793;19;20003;-74
2023/04/12 10:29:55;;;;;;;7.45;1.00;;;13.50;85.00;;;;;;7377720;19;20254;-74
2023/04/12 10:32:25;;;;;;;6.15;1.20;;;13.50;85.10;;;;;;7378023;19;20090;-74
2023/04/12 10:34:55;;;;;;;4.63;0.90;;;13.70;85.60;;;;;;7378062;19;20016;-73
2023/04/12 10:37:24;;;;;;;7.85;1.30;;;14.00;83.80;;;;;;7400829;19;20250;-73
2023/04/12 10:39:58;;;;;;;5.47;1.25;;;14.00;84.00;;;;;;7377827;19;20003;-73
2023/04/12 10:42:28;;;;;;;6.53;1.10;;;14.10;81.60;;;;;;7378009;19;20020;-74
2023/04/12 10:44:58;;;;;;;6.78;0.90;;;13.90;81.50;;;;;;7378052;19;20003;-73
2023/04/12 10:47:57;;;;;;;8.13;1.25;;;14.10;82.00;;;;;;7377831;19;20014;-73
2023/04/12 10:50:29;;;;;;;8.57;1.23;;;13.80;82.00;;;;;;7377439;19;20377;-74
2023/04/12 10:53:28;;;;;;;6.00;1.17;;;14.00;82.50;;;;;;7377883;19;20066;-73
2023/04/12 10:55:59;;;;;;;5.80;1.02;;;13.80;82.70;;;;;;7378571;19;20007;-72
2023/04/12 10:58:59;;;;;;;6.45;1.17;;;13.80;83.20;;;;;;7386877;19;20058;-73
2023/04/12 11:01:29;;;;;;;6.97;1.17;;;13.90;83.30;;;;;;7390363;19;20011;-73
2023/04/12 11:04:15;;;;;;;7.03;1.20;;;14.10;83.50;;;;;;7402428;19;20059;-73
2023/04/12 11:06:48;;;;;;;2.15;1.00;;;13.90;83.50;;;;;;7384611;19;20002;-74
2023/04/12 11:09:25;;;;;;;13.98;1.75;;;14.20;83.10;;;;;;7384986;19;20006;-73
2023/04/12 11:11:59;;;;;;;11.77;1.30;;;14.40;82.80;;;;;;7385107;19;20028;-73
2023/04/12 11:14:32;;;;;;;9.60;1.48;;;14.20;82.80;;;;;;7386963;19;20003;-73
2023/04/12 11:17:25;;;;;;;4.78;1.50;;;13.90;82.40;;;;;;7388171;19;20007;-73
2023/04/12 11:19:57;;;;;;;6.57;1.38;;;14.00;82.70;;;;;;7387846;19;20014;-73
2023/04/12 11:22:27;;;;;;;4.95;1.05;;;14.10;83.20;;;;;;7406742;19;20003;-73
2023/04/12 11:24:57;;;;;;;12.30;1.25;;;14.20;82.40;;;;;;7384157;19;20006;-73
2023/04/12 11:27:30;;;;;;;8.95;1.65;;;14.00;82.30;;;;;;7383152;19;20449;-73
2023/04/12 11:30:02;;;;;;;6.78;1.20;;;13.90;80.30;;;;;;7384265;19;20087;-72
2023/04/12 11:32:33;;;;;;;5.60;0.90;;;13.90;80.40;;;;;;7383500;19;20035;-72
2023/04/12 11:35:02;;;;;;;7.63;1.00;;;13.80;79.70;;;;;;7382364;19;20002;-73
2023/04/12 11:37:33;;;;;;;6.63;1.15;;;14.00;79.30;;;;;;7385247;19;20022;-73
2023/04/12 11:40:04;;;;;;;2.85;1.00;;;14.00;78.60;;;;;;7402289;19;20372;-73
2023/04/12 11:42:35;;;;;;;6.85;1.08;;;13.90;78.20;;;;;;7381456;19;20018;-73
2023/04/12 11:45:04;;;;;;;;;;;13.80;81.40;;;;;;7384769;19;20275;-73
2023/04/12 11:47:33;;;;;;;12.23;1.08;;;14.10;84.10;;;;;;7382203;19;19907;-73
2023/04/12 11:50:02;;;;;;;5.28;1.10;;;14.30;85.60;;;;;;7383516;19;20007;-73
2023/04/12 11:52:32;;;;;;;4.97;1.10;;;14.00;84.50;;;;;;7383103;19;20011;-73
2023/04/12 11:55:05;;;;;;;3.38;1.20;;;14.20;84.60;;;;;;7401654;19;20276;-73
2023/04/12 11:57:37;;;;;;;5.35;1.02;;;14.10;83.00;;;;;;7382198;19;20009;-73
2023/04/12 12:00:07;;;;;;;4.32;0.90;;;13.90;83.30;;;;;;7381782;19;20074;-73
2023/04/12 12:02:37;;;;;;;12.00;1.15;;;14.10;82.40;;;;;;7380366;19;20015;-73
2023/04/12 12:05:08;;;;;;;4.40;0.80;;;14.20;81.30;;;;;;7383313;19;20006;-73
2023/04/12 12:07:37;;;;;;;;;;;14.40;81.90;;;;;;7380797;19;20035;-73
2023/04/12 12:10:08;;;;;;;5.45;0.93;;;14.50;81.60;;;;;;7404722;19;20211;-73
2023/04/12 12:12:39;;;;;;;5.82;1.00;;;14.50;81.40;;;;;;7381836;19;20020;-73
2023/04/12 12:15:10;;;;;;;3.55;0.70;;;14.60;79.90;;;;;;7380857;19;20465;-73
2023/04/12 12:17:39;;;;;;;6.75;0.95;;;14.70;79.70;;;;;;7381613;19;20078;-73
2023/04/12 12:20:09;;;;;;;5.82;1.05;;;14.90;79.10;;;;;;7382336;19;20281;-73
2023/04/12 12:22:37;;;;;;;5.28;1.00;;;14.80;78.60;;;;;;7381014;19;20010;-73
2023/04/12 12:25:07;;;;;;;4.03;0.95;;;14.70;77.90;;;;;;7403578;19;20007;-73
2023/04/12 12:27:43;;;;;;;5.18;1.83;;;14.70;79.20;;;;;;7381703;19;20022;-73
2023/04/12 12:30:13;;;;;;;4.00;1.25;;;14.70;79.80;;;;;;7381712;19;20216;-74
2023/04/12 12:32:42;;;;;;;3.08;1.00;;;14.70;80.60;;;;;;7382344;19;20006;-74
2023/04/12 12:35:12;;;;;;;5.07;1.00;;;14.60;83.20;;;;;;7381622;19;20374;-74
2023/04/12 12:37:51;;;;;;;3.13;0.90;;;14.40;83.70;;;;;;7381717;19;20015;-73
2023/04/12 12:40:22;;;;;;;5.43;0.90;;;14.40;84.90;;;;;;7403398;19;20386;-74
2023/04/12 12:42:55;;;;;;;3.60;0.85;;;14.60;84.70;;;;;;7380187;19;20007;-74
2023/04/12 12:45:25;;;;;;;3.33;0.80;;;14.50;83.10;;;;;;7382793;19;20354;-73
2023/04/12 12:47:57;;;;;;;3.00;0.82;;;14.30;81.30;;;;;;7383128;19;20064;-73
2023/04/12 12:50:28;;;;;;;1.95;0.93;;;14.30;79.90;;;;;;7383664;19;20002;-73
2023/04/12 12:52:59;;;;;;;4.40;0.80;;;14.40;77.50;;;;;;7383185;19;20080;-74
2023/04/12 12:55:31;;;;;;;1.30;0.45;;;14.60;75.80;;;;;;7390989;19;20010;-73
2023/04/12 12:58:03;;;;;;;2.50;0.57;;;14.60;73.50;;;;;;7403006;19;20003;-73
2023/04/12 13:00:31;;;;;;;1.67;0.70;;;14.60;74.00;;;;;;7380365;19;20018;-74
2023/04/12 13:03:00;;;;;;;4.78;0.80;;;14.90;75.40;;;;;;7379696;19;20027;-74